YOD weather

CFB Cold Lake
Cold Lake, Alberta, Canada

Public forecast

Using degrees Celsius for public forecast. Weather courtesy of forecast.io.

Current aviation weather report (METAR) for CFB Cold Lake

Retrieved 2019/11/14 12:00 UTC (45 minutes ago):

CYOD 141200Z 36007KT 15SM OVC060 M06/M11 A3011 RMK SC8 SLP229

Aviation forecast (TAF) for CFB Cold Lake

Retrieved 2019/11/14 12:35 UTC (10 minutes ago):

TAF CYOD 141130Z 1412/1512 02008KT P6SM SCT015 BKN060 TEMPO 1412/1417 BKN015 OVC060 FM141700 01005KT P6SM SCT025 TEMPO 1417/1423 BKN025 BECMG 1420/1422 10008KT FM142300 11010KT P6SM BKN020 PROB30 1423/1507 4SM -FZDZ BR RMK NXT FCST BY 141500Z